createdAt,value
2023-02-04T00:00:34.745Z,7.69
2023-02-04T00:03:01.335Z,7.66
2023-02-04T00:05:27.969Z,7.63
2023-02-04T00:07:54.514Z,7.65
2023-02-04T00:10:21.198Z,7.59
2023-02-04T00:12:47.819Z,7.64
2023-02-04T00:15:14.435Z,7.61
2023-02-04T00:17:41.025Z,7.62
2023-02-04T00:20:07.850Z,7.62
2023-02-04T00:22:34.354Z,7.55
2023-02-04T00:27:38.899Z,7.56
2023-02-04T00:30:06.776Z,7.50
2023-02-04T00:32:33.720Z,7.59
2023-02-04T00:37:35.951Z,7.58
2023-02-04T00:42:40.560Z,7.55
2023-02-04T00:45:07.465Z,7.58
2023-02-04T00:47:34.048Z,7.55
2023-02-04T00:50:00.595Z,7.53
2023-02-04T00:52:27.171Z,7.56
2023-02-04T00:54:53.732Z,7.58
2023-02-04T00:57:20.292Z,7.61
2023-02-04T00:59:46.840Z,7.64
2023-02-04T01:02:13.402Z,7.61
2023-02-04T01:04:39.953Z,7.64
2023-02-04T01:07:06.558Z,7.63
2023-02-04T01:09:34.126Z,7.71
2023-02-04T01:12:00.702Z,7.68
2023-02-04T01:14:27.466Z,7.72
2023-02-04T01:16:54.057Z,7.66
2023-02-04T01:19:21.205Z,7.64
2023-02-04T01:21:47.981Z,7.61
2023-02-04T01:24:14.529Z,7.61
2023-02-04T01:26:41.033Z,7.70
2023-02-04T01:31:38.926Z,7.70
2023-02-04T01:34:05.567Z,7.73
2023-02-04T01:36:32.110Z,7.72
2023-02-04T01:39:01.137Z,7.76
2023-02-04T01:41:28.313Z,7.70
2023-02-04T01:46:34.818Z,7.70
2023-02-04T01:49:01.549Z,7.70
2023-02-04T01:54:15.009Z,7.63
2023-02-04T01:56:45.526Z,7.70
2023-02-04T01:59:14.316Z,7.73
2023-02-04T02:01:43.655Z,7.65
2023-02-04T02:04:11.849Z,7.64
2023-02-04T02:06:41.464Z,7.70
2023-02-04T02:09:08.371Z,7.74
2023-02-04T02:11:35.016Z,7.80
2023-02-04T02:14:01.573Z,7.75
2023-02-04T02:16:28.119Z,7.71
2023-02-04T02:18:54.799Z,7.85
2023-02-04T02:21:39.514Z,7.81
2023-02-04T02:24:26.414Z,7.79
2023-02-04T02:26:54.938Z,7.80
2023-02-04T02:31:57.588Z,7.74
2023-02-04T02:34:26.188Z,7.75
2023-02-04T02:36:53.466Z,7.65
2023-02-04T02:39:20.543Z,7.70
2023-02-04T02:41:47.240Z,7.68
2023-02-04T02:44:14.883Z,7.69
2023-02-04T02:46:41.536Z,7.69
2023-02-04T02:49:15.824Z,7.59
2023-02-04T02:51:42.993Z,7.62
2023-02-04T02:54:36.077Z,7.63
2023-02-04T02:57:02.631Z,7.60
2023-02-04T02:59:29.342Z,7.65
2023-02-04T03:02:00.396Z,7.69
2023-02-04T03:04:30.155Z,7.70
2023-02-04T03:06:56.960Z,7.67
2023-02-04T03:09:25.855Z,7.60
2023-02-04T03:11:52.582Z,7.54
2023-02-04T03:14:19.820Z,7.60
2023-02-04T03:16:47.434Z,7.62
2023-02-04T03:19:14.285Z,7.62
2023-02-04T03:21:41.614Z,7.65
2023-02-04T03:24:08.305Z,7.61
2023-02-04T03:26:35.215Z,7.65
2023-02-04T03:29:01.948Z,7.64
2023-02-04T03:31:28.666Z,7.58
2023-02-04T03:33:55.228Z,7.55
2023-02-04T03:36:22.033Z,7.58
2023-02-04T03:38:48.623Z,7.57
2023-02-04T03:41:15.153Z,7.65
2023-02-04T03:43:41.684Z,7.65
2023-02-04T03:46:08.304Z,7.62
2023-02-04T03:48:34.934Z,7.59
2023-02-04T03:51:01.556Z,7.51
2023-02-04T03:53:28.139Z,7.59
2023-02-04T03:55:54.685Z,7.52
2023-02-04T03:58:22.381Z,7.44
2023-02-04T04:00:49.489Z,7.42
2023-02-04T04:05:47.626Z,7.47
2023-02-04T04:08:14.167Z,7.45
2023-02-04T04:10:42.033Z,7.45
2023-02-04T04:13:08.649Z,7.40
2023-02-04T04:15:35.140Z,7.36
2023-02-04T04:18:02.801Z,7.39
2023-02-04T04:20:29.511Z,7.47
2023-02-04T04:22:56.276Z,7.40
2023-02-04T04:25:22.857Z,7.39
2023-02-04T04:27:49.400Z,7.35
2023-02-04T04:30:16.040Z,7.24
2023-02-04T04:32:42.570Z,7.22
2023-02-04T04:35:09.191Z,7.41
2023-02-04T04:37:35.732Z,7.42
2023-02-04T04:40:02.867Z,7.28
2023-02-04T04:42:29.432Z,7.31
2023-02-04T04:44:56.029Z,7.29
2023-02-04T04:47:22.527Z,7.32
2023-02-04T04:49:49.063Z,7.24
2023-02-04T04:52:15.583Z,7.19
2023-02-04T04:54:42.082Z,7.12
2023-02-04T04:57:08.617Z,7.11
2023-02-04T05:02:06.422Z,7.20
2023-02-04T05:04:33.021Z,7.15
2023-02-04T05:06:59.668Z,7.06
2023-02-04T05:09:26.352Z,7.02
2023-02-04T05:11:52.918Z,6.98
2023-02-04T05:16:56.520Z,7.02
2023-02-04T05:19:23.036Z,7.00
2023-02-04T05:21:49.625Z,7.01
2023-02-04T05:24:16.164Z,6.94
2023-02-04T05:26:42.740Z,6.94
2023-02-04T05:29:10.827Z,6.82
2023-02-04T05:31:37.488Z,6.91
2023-02-04T05:34:04.123Z,6.94
2023-02-04T05:36:30.754Z,6.90
2023-02-04T05:38:57.286Z,6.87
2023-02-04T05:41:23.880Z,6.78
2023-02-04T05:43:50.380Z,6.86
2023-02-04T05:46:16.875Z,6.84
2023-02-04T05:48:43.397Z,6.84
2023-02-04T05:51:09.904Z,6.81
2023-02-04T05:53:36.421Z,6.74
2023-02-04T05:56:03.043Z,6.78
2023-02-04T05:58:33.510Z,6.77
2023-02-04T06:01:01.717Z,6.71
2023-02-04T06:03:29.637Z,6.69
2023-02-04T06:05:56.938Z,6.71
2023-02-04T06:08:23.485Z,6.60
2023-02-04T06:10:50.022Z,6.53
2023-02-04T06:13:16.908Z,6.62
2023-02-04T06:15:43.501Z,6.74
2023-02-04T06:18:10.150Z,6.72
2023-02-04T06:20:36.683Z,6.77
2023-02-04T06:23:03.232Z,6.72
2023-02-04T06:25:29.761Z,6.68
2023-02-04T06:27:56.436Z,6.62
2023-02-04T06:30:22.968Z,6.49
2023-02-04T06:32:49.494Z,6.46
2023-02-04T06:35:16.736Z,6.45
2023-02-04T06:37:43.691Z,6.43
2023-02-04T06:40:11.478Z,6.36
2023-02-04T06:42:38.034Z,6.36
2023-02-04T06:45:05.295Z,6.36
2023-02-04T06:47:31.946Z,6.38
2023-02-04T06:49:58.472Z,6.31
2023-02-04T06:52:25.051Z,6.30
2023-02-04T06:54:51.591Z,6.30
2023-02-04T06:57:18.146Z,6.32
2023-02-04T06:59:44.716Z,6.29
2023-02-04T07:02:12.453Z,6.40
2023-02-04T07:07:11.799Z,6.50
2023-02-04T07:09:40.657Z,6.44
2023-02-04T07:12:07.562Z,6.39
2023-02-04T07:14:37.259Z,6.36
2023-02-04T07:17:04.040Z,6.37
2023-02-04T07:19:30.557Z,6.43
2023-02-04T07:21:57.328Z,6.36
2023-02-04T07:24:24.120Z,6.51
2023-02-04T07:26:50.835Z,6.51
2023-02-04T07:29:25.094Z,6.46
2023-02-04T07:31:52.999Z,6.44
2023-02-04T07:34:20.352Z,6.43
2023-02-04T07:36:47.017Z,6.38
2023-02-04T07:39:13.616Z,6.35
2023-02-04T07:41:41.069Z,6.41
2023-02-04T07:44:07.680Z,6.52
2023-02-04T07:46:34.302Z,6.52
2023-02-04T07:49:00.967Z,6.55
2023-02-04T07:51:28.021Z,6.55
2023-02-04T07:53:55.934Z,6.52
2023-02-04T07:58:54.114Z,6.58
2023-02-04T08:01:20.693Z,6.54
2023-02-04T08:03:47.281Z,6.57
2023-02-04T08:06:13.876Z,6.57
2023-02-04T08:08:40.420Z,6.65
2023-02-04T08:11:07.023Z,6.60
2023-02-04T08:13:33.609Z,6.67
2023-02-04T08:16:00.206Z,6.58
2023-02-04T08:18:26.808Z,6.54
2023-02-04T08:20:53.522Z,6.57
2023-02-04T08:23:20.410Z,6.57
2023-02-04T08:28:18.487Z,6.66
2023-02-04T08:30:45.134Z,6.72
2023-02-04T08:33:11.765Z,6.66
2023-02-04T08:35:38.276Z,6.78
2023-02-04T08:38:04.810Z,6.88
2023-02-04T08:40:31.909Z,6.80
2023-02-04T08:42:58.757Z,6.83
2023-02-04T08:45:25.300Z,6.82
2023-02-04T08:47:51.806Z,6.81
2023-02-04T08:50:18.486Z,6.86
2023-02-04T08:52:45.012Z,6.93
2023-02-04T08:55:11.602Z,6.91
2023-02-04T08:57:38.173Z,7.21
2023-02-04T09:00:05.004Z,7.31
2023-02-04T09:05:10.081Z,7.35
2023-02-04T09:07:36.616Z,7.16
2023-02-04T09:10:03.444Z,7.32
2023-02-04T09:12:29.984Z,7.33
2023-02-04T09:14:56.505Z,7.37
2023-02-04T09:17:23.113Z,7.45
2023-02-04T09:19:49.628Z,7.56
2023-02-04T09:22:16.153Z,7.62
2023-02-04T09:24:42.648Z,7.86
2023-02-04T09:27:09.274Z,7.88
2023-02-04T09:32:12.941Z,8.49
2023-02-04T09:34:39.639Z,8.49
2023-02-04T09:39:44.675Z,8.89
2023-02-04T09:42:15.128Z,9.04
2023-02-04T09:44:42.061Z,9.12
2023-02-04T09:47:11.715Z,9.32
2023-02-04T09:49:38.272Z,9.50
2023-02-04T09:54:38.466Z,9.86
2023-02-04T09:57:15.077Z,10.00
2023-02-04T09:59:43.493Z,9.85
2023-02-04T10:02:26.346Z,9.40
2023-02-04T10:04:57.652Z,9.16
2023-02-04T10:07:26.595Z,10.23
2023-02-04T10:09:54.453Z,9.78
2023-02-04T10:12:21.729Z,9.43
2023-02-04T10:17:22.947Z,9.08
2023-02-04T10:19:49.757Z,8.80
2023-02-04T10:22:19.929Z,8.52
2023-02-04T10:24:46.813Z,8.42
2023-02-04T10:27:16.364Z,8.36
2023-02-04T10:29:43.631Z,8.30
2023-02-04T10:32:26.989Z,8.15
2023-02-04T10:34:58.880Z,8.09
2023-02-04T10:42:31.021Z,8.16
2023-02-04T10:44:58.526Z,8.34
2023-02-04T10:47:29.064Z,8.35
2023-02-04T10:50:15.423Z,8.30
2023-02-04T10:52:45.649Z,8.31
2023-02-04T10:58:02.078Z,8.36
2023-02-04T11:00:30.022Z,8.47
2023-02-04T11:05:36.144Z,8.46
2023-02-04T11:08:18.401Z,8.39
2023-02-04T11:10:45.277Z,8.35
2023-02-04T11:13:22.624Z,8.34
2023-02-04T11:15:55.207Z,8.45
2023-02-04T11:18:21.953Z,8.51
2023-02-04T11:20:55.132Z,8.43
2023-02-04T11:23:27.640Z,8.38
2023-02-04T11:26:07.545Z,8.36
2023-02-04T11:28:46.262Z,8.33
2023-02-04T11:31:19.998Z,8.33
2023-02-04T11:33:48.093Z,8.32
2023-02-04T11:38:49.971Z,8.50
2023-02-04T11:41:31.795Z,8.39
2023-02-04T11:43:58.508Z,8.40
2023-02-04T11:46:28.397Z,8.37
2023-02-04T11:48:57.721Z,8.45
2023-02-04T11:51:30.485Z,8.45
2023-02-04T12:01:50.133Z,8.49
2023-02-04T12:04:24.912Z,8.44
2023-02-04T12:07:03.545Z,8.49
2023-02-04T12:09:31.530Z,8.57
2023-02-04T12:12:03.624Z,8.92
2023-02-04T12:17:19.504Z,8.93
2023-02-04T12:19:46.227Z,8.81
2023-02-04T12:22:14.766Z,8.77
2023-02-04T12:24:41.832Z,8.76
2023-02-04T12:27:08.556Z,8.62
2023-02-04T12:29:35.068Z,8.51
2023-02-04T12:32:01.695Z,8.50
2023-02-04T12:34:29.037Z,8.50
2023-02-04T12:36:55.660Z,8.37
2023-02-04T12:39:22.167Z,8.34
2023-02-04T12:41:48.737Z,8.37
2023-02-04T12:44:17.451Z,8.42
2023-02-04T12:49:15.398Z,8.26
2023-02-04T12:51:42.021Z,8.25
2023-02-04T12:54:08.541Z,8.22
2023-02-04T12:56:35.077Z,8.21
2023-02-04T12:59:01.685Z,8.24
2023-02-04T13:01:28.244Z,8.11
2023-02-04T13:03:54.853Z,8.17
2023-02-04T13:06:21.490Z,8.17
2023-02-04T13:11:25.391Z,8.23
2023-02-04T13:13:51.886Z,8.27
2023-02-04T13:16:19.520Z,8.42
2023-02-04T13:18:46.096Z,8.45
2023-02-04T13:21:12.628Z,8.50
2023-02-04T13:23:39.165Z,8.60
2023-02-04T13:28:39.772Z,8.60
2023-02-04T13:31:06.621Z,8.60
2023-02-04T13:33:33.381Z,8.65
2023-02-04T13:35:59.955Z,8.82
2023-02-04T13:38:26.639Z,8.82
2023-02-04T13:40:53.138Z,8.84
2023-02-04T13:43:19.696Z,8.78
2023-02-04T13:45:48.858Z,8.93
2023-02-04T13:48:16.520Z,8.81
2023-02-04T13:50:43.096Z,8.70
2023-02-04T13:53:09.758Z,8.62
2023-02-04T13:55:36.384Z,8.67
2023-02-04T13:58:02.952Z,8.71
2023-02-04T14:00:29.487Z,8.90
2023-02-04T14:02:56.750Z,8.95
2023-02-04T14:05:23.363Z,9.00
2023-02-04T14:07:49.952Z,8.90
2023-02-04T14:10:19.567Z,8.91
2023-02-04T14:12:46.170Z,9.03
2023-02-04T14:15:12.775Z,9.25
2023-02-04T14:17:39.393Z,9.25
2023-02-04T14:20:06.284Z,9.37
2023-02-04T14:22:32.813Z,9.39
2023-02-04T14:24:59.344Z,9.26
2023-02-04T14:27:25.948Z,9.20
2023-02-04T14:29:52.494Z,9.16
2023-02-04T14:32:20.997Z,9.37
2023-02-04T14:34:47.589Z,9.37
2023-02-04T14:37:14.102Z,9.25
2023-02-04T14:39:40.643Z,9.21
2023-02-04T14:44:45.058Z,9.05
2023-02-04T14:47:11.558Z,9.14
2023-02-04T14:49:38.213Z,9.04
2023-02-04T14:52:04.950Z,8.90
2023-02-04T14:54:31.487Z,8.95
2023-02-04T14:56:58.030Z,9.03
2023-02-04T14:59:24.611Z,9.02
2023-02-04T15:01:51.154Z,9.10
2023-02-04T15:04:18.677Z,9.95
2023-02-04T15:06:46.192Z,9.64
2023-02-04T15:09:13.166Z,9.92
2023-02-04T15:11:40.088Z,10.53
2023-02-04T15:14:06.656Z,9.82
2023-02-04T15:16:33.273Z,9.54
2023-02-04T15:18:59.802Z,9.20
2023-02-04T15:21:27.449Z,9.12
2023-02-04T15:26:25.337Z,8.65
2023-02-04T15:28:52.002Z,8.53
2023-02-04T15:31:18.628Z,8.58
2023-02-04T15:33:45.232Z,8.47
2023-02-04T15:36:11.784Z,8.35
2023-02-04T15:38:38.299Z,8.28
2023-02-04T15:41:05.364Z,8.32
2023-02-04T15:43:31.978Z,8.15
2023-02-04T15:45:58.627Z,8.01
2023-02-04T15:48:25.324Z,7.92
2023-02-04T15:50:51.856Z,7.85
2023-02-04T15:53:18.521Z,7.74
2023-02-04T15:55:45.256Z,7.67
2023-02-04T15:58:12.083Z,7.64
2023-02-04T16:00:38.773Z,7.57
2023-02-04T16:03:05.728Z,7.42
2023-02-04T16:05:32.354Z,7.50
2023-02-04T16:07:58.982Z,7.45
2023-02-04T16:10:25.495Z,7.40
2023-02-04T16:12:55.010Z,7.42
2023-02-04T16:15:21.537Z,7.37
2023-02-04T16:17:48.437Z,7.26
2023-02-04T16:20:15.062Z,7.19
2023-02-04T16:22:41.565Z,7.08
2023-02-04T16:25:08.426Z,7.04
2023-02-04T16:27:35.349Z,7.05
2023-02-04T16:30:02.611Z,7.10
2023-02-04T16:35:08.401Z,7.08
2023-02-04T16:37:36.157Z,7.00
2023-02-04T16:40:02.767Z,6.97
2023-02-04T16:42:31.154Z,6.78
2023-02-04T16:44:58.035Z,6.77
2023-02-04T16:50:00.834Z,6.48
2023-02-04T16:52:29.218Z,6.54
2023-02-04T16:57:27.017Z,6.61
2023-02-04T16:59:53.620Z,6.55
2023-02-04T17:02:20.179Z,6.39
2023-02-04T17:04:46.772Z,6.11
2023-02-04T17:07:13.311Z,5.97
2023-02-04T17:12:17.175Z,5.77
2023-02-04T17:14:43.802Z,5.69
2023-02-04T17:17:10.321Z,5.67
2023-02-04T17:19:36.890Z,5.68
2023-02-04T17:22:03.474Z,5.54
2023-02-04T17:24:30.021Z,5.66
2023-02-04T17:26:56.601Z,5.79
2023-02-04T17:29:24.990Z,5.91
2023-02-04T17:31:52.973Z,5.88
2023-02-04T17:34:19.613Z,5.91
2023-02-04T17:36:46.322Z,5.87
2023-02-04T17:39:12.918Z,5.91
2023-02-04T17:44:20.194Z,5.85
2023-02-04T17:46:46.852Z,5.80
2023-02-04T17:49:13.498Z,5.87
2023-02-04T17:51:40.013Z,5.89
2023-02-04T17:54:06.531Z,5.84
2023-02-04T17:56:33.100Z,5.78
2023-02-04T17:58:59.622Z,5.68
2023-02-04T18:01:26.320Z,5.68
2023-02-04T18:03:53.226Z,5.52
2023-02-04T18:06:20.491Z,5.52
2023-02-04T18:08:48.046Z,5.54
2023-02-04T18:11:25.436Z,5.38
2023-02-04T18:13:55.579Z,5.50
2023-02-04T18:19:18.361Z,5.53
2023-02-04T18:21:46.713Z,5.48
2023-02-04T18:24:27.327Z,5.45
2023-02-04T18:26:56.477Z,5.58
2023-02-04T18:29:35.254Z,5.49
2023-02-04T18:32:06.383Z,5.45
2023-02-04T18:34:41.644Z,5.44
2023-02-04T18:37:37.022Z,5.70
2023-02-04T18:40:09.367Z,5.59
2023-02-04T18:42:41.228Z,5.57
2023-02-04T18:45:29.535Z,5.51
2023-02-04T18:48:01.805Z,5.44
2023-02-04T18:50:30.072Z,5.39
2023-02-04T18:53:26.897Z,5.28
2023-02-04T18:55:58.683Z,5.13
2023-02-04T18:58:41.769Z,5.12
2023-02-04T19:01:10.935Z,4.98
2023-02-04T19:03:45.316Z,4.78
2023-02-04T19:06:39.426Z,4.84
2023-02-04T19:09:26.054Z,4.62
2023-02-04T19:11:55.472Z,4.50
2023-02-04T19:14:35.873Z,4.42
2023-02-04T19:17:14.518Z,4.51
2023-02-04T19:20:00.029Z,4.47
2023-02-04T19:22:41.672Z,4.74
2023-02-04T19:28:33.702Z,4.64
2023-02-04T19:31:03.312Z,4.48
2023-02-04T19:33:40.172Z,4.36
2023-02-04T19:36:23.348Z,4.32
2023-02-04T19:39:00.716Z,4.28
2023-02-04T19:41:59.513Z,4.19
2023-02-04T19:44:42.109Z,4.03
2023-02-04T19:47:36.500Z,4.06
2023-02-04T19:50:03.190Z,3.98
2023-02-04T19:52:35.001Z,3.90
2023-02-04T19:55:16.675Z,3.85
2023-02-04T19:57:50.025Z,4.09
2023-02-04T20:00:28.995Z,3.92
2023-02-04T20:02:57.641Z,3.84
2023-02-04T20:05:26.738Z,3.66
2023-02-04T20:07:53.288Z,3.88
2023-02-04T20:10:28.237Z,4.23
2023-02-04T20:13:12.538Z,4.08
2023-02-04T20:15:39.191Z,3.67
2023-02-04T20:18:17.048Z,3.54
2023-02-04T20:20:45.438Z,3.70
2023-02-04T20:23:31.899Z,3.82
2023-02-04T20:26:00.653Z,3.86
2023-02-04T20:28:40.097Z,3.72
2023-02-04T20:31:22.681Z,3.66
2023-02-04T20:33:52.167Z,3.74
2023-02-04T20:36:33.382Z,4.13
2023-02-04T20:39:15.920Z,3.74
2023-02-04T20:41:43.041Z,3.58
2023-02-04T20:44:27.615Z,3.49
2023-02-04T20:47:11.583Z,3.38
2023-02-04T20:49:41.391Z,3.31
2023-02-04T20:52:39.678Z,3.36
2023-02-04T20:58:24.342Z,3.61
2023-02-04T21:00:53.957Z,3.48
2023-02-04T21:03:36.872Z,3.48
2023-02-04T21:06:21.075Z,3.42
2023-02-04T21:08:49.911Z,3.46
2023-02-04T21:11:16.559Z,3.50
2023-02-04T21:13:43.158Z,3.27
2023-02-04T21:16:10.127Z,3.62
2023-02-04T21:21:09.976Z,3.43
2023-02-04T21:23:37.058Z,3.26
2023-02-04T21:26:04.841Z,3.44
2023-02-04T21:28:32.502Z,3.37
2023-02-04T21:31:00.349Z,3.66
2023-02-04T21:35:58.250Z,3.26
2023-02-04T21:38:24.858Z,3.42
2023-02-04T21:40:51.491Z,3.49
2023-02-04T21:43:18.030Z,3.47
2023-02-04T21:45:44.818Z,3.56
2023-02-04T21:48:11.454Z,3.37
2023-02-04T21:50:38.716Z,3.42
2023-02-04T21:53:06.623Z,3.04
2023-02-04T21:55:34.435Z,3.04
2023-02-04T21:58:01.261Z,2.82
2023-02-04T22:00:27.836Z,2.73
2023-02-04T22:02:54.832Z,2.56
2023-02-04T22:05:22.391Z,2.61
2023-02-04T22:07:49.432Z,2.71
2023-02-04T22:10:23.086Z,2.72
2023-02-04T22:12:49.771Z,2.67
2023-02-04T22:15:24.318Z,2.71
2023-02-04T22:17:52.886Z,2.74
2023-02-04T22:20:20.809Z,3.15
2023-02-04T22:22:48.130Z,3.17
2023-02-04T22:25:16.871Z,2.82
2023-02-04T22:30:15.796Z,3.18
2023-02-04T22:32:42.980Z,3.31
2023-02-04T22:35:11.260Z,3.38
2023-02-04T22:37:38.965Z,3.32
2023-02-04T22:40:06.668Z,3.37
2023-02-04T22:42:33.535Z,3.12
2023-02-04T22:45:00.145Z,2.99
2023-02-04T22:47:26.652Z,3.09
2023-02-04T22:49:53.169Z,3.02
2023-02-04T22:52:19.808Z,2.97
2023-02-04T22:54:46.326Z,3.03
2023-02-04T22:57:12.897Z,3.05
2023-02-04T22:59:39.507Z,3.03
2023-02-04T23:02:06.093Z,3.06
2023-02-04T23:04:32.680Z,2.99
2023-02-04T23:07:00.861Z,3.16
2023-02-04T23:09:28.398Z,3.21
2023-02-04T23:11:56.847Z,3.22
2023-02-04T23:14:23.866Z,3.18
2023-02-04T23:16:51.363Z,3.20
2023-02-04T23:19:17.939Z,3.15
2023-02-04T23:21:44.508Z,3.14
2023-02-04T23:24:11.148Z,3.22
2023-02-04T23:26:37.656Z,3.18
2023-02-04T23:29:04.256Z,3.18
2023-02-04T23:31:30.831Z,3.20
2023-02-04T23:33:57.404Z,3.20
2023-02-04T23:36:23.998Z,3.14
2023-02-04T23:38:50.530Z,3.20
2023-02-04T23:41:17.123Z,3.15
2023-02-04T23:43:43.618Z,3.17
2023-02-04T23:46:10.521Z,3.24
2023-02-04T23:48:37.085Z,3.24
2023-02-04T23:51:03.746Z,3.14
2023-02-04T23:53:30.277Z,3.09
2023-02-04T23:55:56.797Z,3.10
2023-02-04T23:58:23.336Z,3.16
